KVLD/VLD METAR and TAF weather

Enter ICAO airport designator
Station Type Date Time Source
KVLD METAR 2019/08/20 09:53 UTC NOAA

KVLD 200953Z AUTO 17004KT 9SM CLR 23/22 A3008 RMK AO2 SLP193 T02330222


Station Type Date Time Source
KVLD Decoded METAR 2019/08/20 09:53 UTC NOAA

VALDOSTA REGIONAL AIRPORT, GA, United States (KVLD) 30-47N 083-16W
Aug 20, 2019 - 05:53 AM EDT / 2019.08.20 0953 UTC
Wind: from the S (170 degrees) at 5 MPH (4 KT):0
Visibility: 9 mile(s):0
Sky conditions: clear
Temperature: 73.9 F (23.3 C)
Dew Point: 72.0 F (22.2 C)
Relative Humidity: 93%
Pressure (altimeter): 30.08 in. Hg (1018 hPa)
ob: KVLD 200953Z AUTO 17004KT 9SM CLR 23/22 A3008 RMK AO2 SLP193 T02330222
cycle: 10

Station Type Date Time Source
KVLD TAF 2019/08/20 06:24 UTC NOAA

TAF KVLD 200522Z 2006/2106 16005KT P6SM BKN250
FM201000 VRB02KT P6SM BKN007 OVC015
FM201300 21004KT P6SM BKN040
FM201800 18004KT P6SM VCTS BKN040CB
FM210000 17003KT P6SM BKN250

Example: see airport list